• Join FlightAware (Why Join?)
  • Login
  • US Flag 
05:30AM EDT


 

Airport Tracker/Info


-or-


 

Live Flight TrackerFlight Track Log ✈ AWE648 ✈ 28-Apr-2013 ✈ KSFO - KPHL

Flight Track Log - Related Links

Times and Time Zones

All times are in EDT time to prevent confusion due to time zone crossing. See the AWE648 flight status page for this flight to view local times or setup timezone preferences in your user account.

Time Position Orientation Groundspeed Altitude Reporting Facility
EDT Latitude Longitude Course Direction KTS MPH feet Rate Location/Type
03:09AM 37.6500 -122.3500 80° East 184 212 1,600  Level Northern Cal TRACON
03:10AM 37.7056 -122.3267 18° North 289 333 2,500 1,740 Climbing Oakland Center
03:11AM 37.7675 -122.3619 336° Northwest 247 284 5,100 2,340 Climbing Oakland Center
03:12AM 37.9632 -122.1091 84° East  Level FlightAware Approximate
03:12AM 37.8319 -122.3600 North 263 303 7,300  Level Oakland Center
03:13AM 37.9819 -121.9391 72° East  Level FlightAware Approximate
03:13AM 37.8536 -122.2664 74° East 281 323 9,400  Level Oakland Center
03:14AM 37.9881 -121.7666 80° East  Level FlightAware Approximate
03:14AM 37.8722 -122.1636 77° East 296 341 10,800  Level Oakland Center
03:15AM 37.8933 -122.0433 77° East 345 397 12,500 1,800 Climbing Oakland Center
03:16AM 37.9158 -121.9214 77° East 356 410 14,500 1,860 Climbing Oakland Center
03:17AM 37.9369 -121.7953 78° East 365 420 16,300 1,500 Climbing Oakland Center
03:18AM 37.9597 -121.6653 77° East 376 433 17,500 1,320 Climbing Oakland Center
03:19AM 37.9853 -121.5236 77° East 409 471 19,000 1,560 Climbing Oakland Center
03:20AM 38.0150 -121.3686 76° East 412 474 20,700 1,500 Climbing Oakland Center
03:21AM 38.0500 -121.2261 73° East 425 489 22,100 1,260 Climbing Oakland Center
03:22AM 38.0861 -121.0831 72° East 429 494 23,300 1,080 Climbing Oakland Center
03:23AM 38.1217 -120.9367 73° East 436 502 24,300 1,080 Climbing Oakland Center
03:24AM 38.1583 -120.7858 73° East 448 516 25,500 1,080 Climbing Oakland Center
03:25AM 38.1947 -120.6358 73° East 449 517 26,500 840 Climbing Oakland Center
03:26AM 38.2314 -120.4814 73° East 457 526 27,200 780 Climbing Oakland Center
03:27AM 38.2689 -120.3244 73° East 465 535 28,100 1,020 Climbing Oakland Center
03:28AM 38.3061 -120.1667 73° East 467 537 29,300 1,140 Climbing Oakland Center
03:29AM 38.3428 -120.0119 73° East 458 527 30,400 840 Climbing Oakland Center
03:30AM 38.3794 -119.8575 73° East 457 526 31,000 240 Climbing Oakland Center
03:31AM 38.4186 -119.6906 73° East 460 529 31,000  Level Oakland Center
03:32AM 38.4536 -119.5308 74° East 468 539 31,000  Level Oakland Center
03:33AM 38.4822 -119.4036 74° East 469 540 31,000  Level Oakland Center
03:34AM 38.5261 -119.2122 74° East 471 542 31,000  Level Oakland Center
03:35AM 38.5625 -119.0531 74° East 469 540 31,000 180 Level Oakland Center
03:36AM 38.5978 -118.8931 74° East 471 542 31,400 540 Climbing Oakland Center
03:37AM 38.6328 -118.7342 74° East 467 537 32,100 660 Climbing Oakland Center
03:38AM 38.6683 -118.5733 74° East 471 542 32,800 660 Climbing Oakland Center
03:39AM 38.7033 -118.4136 74° East 470 541 33,500 480 Climbing Oakland Center
03:41AM 38.7719 -118.0939 75° East 467 537 34,400 420 Climbing Oakland Center
03:42AM 38.8067 -117.9336 74° East 469 540 34,800 300 Climbing Oakland Center
03:43AM 38.8403 -117.7733 75° East 469 540 35,000 60 Climbing Oakland Center
03:44AM 38.8789 -117.5919 75° East 469 540 35,000  Level Oakland Center
03:45AM 38.9075 -117.4522 75° East 469 540 35,000  Level Oakland Center
03:46AM 38.9472 -117.2592 75° East 467 537 35,000  Level Oakland Center
03:47AM 38.9803 -117.0964 75° East 472 543 35,000  Level Oakland Center
03:48AM 39.0122 -116.9394 75° East 472 543 35,000  Level Oakland Center
03:49AM 39.0453 -116.7767 75° East 471 542 35,000  Level Oakland Center
03:50AM 39.0778 -116.6144 75° East 468 539 35,000  Level Oakland Center
03:51AM 39.1097 -116.4522 76° East 468 539 35,000  Level Oakland Center
03:52AM 39.1397 -116.3003 76° East 471 542 35,000  Level Oakland Center
03:53AM 39.1711 -116.1433 75° East 473 544 35,000  Level Oakland Center
03:54AM 39.2114 -115.9325 76° East 469 540 35,000  Level Salt Lake Center
03:55AM 39.2419 -115.7769 76° East 468 539 35,000  Level Salt Lake Center
03:56AM 39.2717 -115.6231 76° East 465 535 35,000  Level Salt Lake Center
03:57AM 39.3064 -115.4417 76° East 465 535 35,000  Level Salt Lake Center
03:58AM 39.3356 -115.2886 76° East 460 529 35,000  Level Salt Lake Center
04:00AM 39.3642 -115.1344 76° East 462 532 35,000  Level Salt Lake Center
04:01AM 39.3961 -114.9547 77° East 461 531 35,000  Level Salt Lake Center
04:02AM 39.4256 -114.7967 76° East 472 543 35,000  Level Salt Lake Center
04:03AM 39.4558 -114.6383 76° East 477 549 35,000  Level Salt Lake Center
04:04AM 39.4836 -114.4833 77° East 467 537 35,000  Level Salt Lake Center
04:05AM 39.5131 -114.3142 77° East 464 534 35,000  Level Salt Lake Center
04:06AM 39.5428 -114.1528 77° East 462 532 35,000  Level Salt Lake Center
04:07AM 39.5703 -113.9908 78° East 460 529 35,000  Level Salt Lake Center
04:08AM 39.5989 -113.8283 77° East 461 531 35,000  Level Salt Lake Center
04:09AM 39.6264 -113.6667 77° East 460 529 35,000 -60 Level Salt Lake Center
04:10AM 39.6544 -113.5028 77° East 463 533 34,900 -1,020 Descending Salt Lake Center
04:11AM 39.6825 -113.3383 77° East 467 537 33,000 -960 Descending Salt Lake Center
04:12AM 39.7106 -113.1692 78° East 477 549 33,000  Level Salt Lake Center
04:13AM 39.7392 -113.0008 77° East 479 551 33,000  Level Salt Lake Center
04:14AM 39.7675 -112.8261 78° East 481 554 33,000  Level Salt Lake Center
04:15AM 39.7950 -112.6597 78° East 478 550 33,000  Level Salt Lake Center
04:16AM 39.8239 -112.4919 77° East 478 550 33,000  Level Salt Lake Center
04:17AM 39.8497 -112.3211 79° East 482 555 33,000  Level Salt Lake Center
04:18AM 39.8761 -112.1531 78° East 479 551 33,000  Level Salt Lake Center
04:19AM 39.9025 -111.9850 78° East 477 549 33,000  Level Salt Lake Center
04:20AM 39.9283 -111.8181 79° East 474 545 33,000  Level Salt Lake Center
04:21AM 39.9542 -111.6506 79° East 475 547 33,000 -60 Level Salt Lake Center
04:22AM 39.9847 -111.4528 79° East 474 545 32,900  Descending Salt Lake Center
04:24AM 40.0328 -111.1331 79° East 469 540 33,000  Climbing Salt Lake Center
04:25AM 40.0589 -110.9572 79° East 458 527 33,000  Level Salt Lake Center
04:26AM 40.0825 -110.7919 79° East 466 536 33,000  Level Salt Lake Center
04:27AM 40.1042 -110.6311 80° East 469 540 33,000  Level Salt Lake Center
04:28AM 40.1275 -110.4728 79° East 465 535 33,000  Level Salt Lake Center
04:29AM 40.1503 -110.3131 79° East 466 536 33,000  Level Salt Lake Center
04:30AM 40.1761 -110.1264 80° East 467 537 33,000  Level Salt Lake Center
04:31AM 40.1983 -109.9658 80° East 468 539 33,000  Level Salt Lake Center
04:32AM 40.2211 -109.8011 80° East 479 551 33,000  Level Salt Lake Center
04:33AM 40.2469 -109.6081 80° East 482 555 33,000  Level Salt Lake Center
04:34AM 40.2692 -109.4431 80° East 480 552 33,000  Level Salt Lake Center
04:35AM 40.2917 -109.2772 80° East 480 552 33,000  Level Salt Lake Center
04:36AM 40.3131 -109.1114 80° East 481 554 33,000  Level Salt Lake Center
04:36AM 40.3197 -109.0553 81° East 478 550 33,000  Level Denver Center
04:37AM 40.3447 -108.8625 80° East 479 551 33,000  Level Denver Center
04:38AM 40.3583 -108.7542 81° East 475 547 33,000  Level Salt Lake Center
04:39AM 40.3775 -108.5900 81° East 477 549 33,000  Level Salt Lake Center
04:39AM 40.3858 -108.5328 79° East 477 549 33,000  Level Denver Center
04:40AM 40.4072 -108.3675 80° East 479 551 33,000  Level Denver Center
04:41AM 40.4228 -108.2336 81° East 481 554 33,000  Level Salt Lake Center
04:42AM 40.4419 -108.0692 81° East 480 552 33,000  Level Salt Lake Center
04:42AM 40.4489 -108.0106 81° East 476 548 33,000  Level Denver Center
04:43AM 40.4697 -107.8461 80° East 475 547 33,000  Level Denver Center
04:44AM 40.4917 -107.6533 81° East 477 549 33,000  Level Denver Center
04:45AM 40.5114 -107.4869 81° East 481 554 33,000  Level Denver Center
04:46AM 40.5294 -107.3183 82° East 485 558 33,000  Level Denver Center
04:47AM 40.5472 -107.1642 81° East 485 558 33,000  Level Denver Center
04:48AM 40.5675 -106.9875 81° East 486 559 33,000 120 Level Denver Center
04:50AM 40.5481 -106.6394 94° East 480 552 33,400 360 Climbing Denver Center
04:51AM 40.5292 -106.4283 97° East 479 551 34,100 540 Climbing Denver Center
04:52AM 40.5156 -106.2603 96° East 481 554 34,600 420 Climbing Denver Center
04:53AM 40.5222 -106.0953 87° East 481 554 35,000 180 Climbing Denver Center
04:54AM 40.5422 -105.9211 81° East 478 550 35,000  Level Denver Center
04:55AM 40.5606 -105.7447 82° East 482 555 35,000  Level Denver Center
04:56AM 40.5803 -105.5664 82° East 486 559 35,000  Level Denver Center
04:57AM 40.5989 -105.3897 82° East 484 557 35,000  Level Denver Center
04:58AM 40.6178 -105.2069 82° East 495 570 35,000  Level Denver Center
04:59AM 40.6369 -105.0233 82° East 501 577 35,000  Level Denver Center
05:00AM 40.6558 -104.8392 82° East 502 578 35,000  Level Denver Center
05:01AM 40.6733 -104.6553 83° East 500 575 35,000  Level Denver Center
05:02AM 40.6925 -104.4714 82° East 500 575 35,000  Level Denver Center
05:03AM 40.7094 -104.2869 83° East 501 577 35,000  Level Denver Center
05:04AM 40.7269 -104.1053 83° East 495 570 35,000  Level Denver Center
05:05AM 40.7436 -103.9239 83° East 495 570 35,000  Level Denver Center
05:06AM 40.7581 -103.7714 83° East 499 574 35,000  Level Denver Center
05:07AM 40.7750 -103.5894 83° East 496 571 35,000  Level Denver Center
05:08AM 40.7914 -103.4058 83° East 498 573 35,000  Level Denver Center
05:09AM 40.8061 -103.2228 84° East 498 573 35,000 240 Level Denver Center
05:10AM 40.8214 -103.0364 84° East 505 581 35,600 840 Climbing Denver Center
05:11AM 40.8383 -102.8386 83° East 500 575 36,700 660 Climbing Denver Center
05:12AM 40.8522 -102.6697 84° East 485 558 37,000 120 Climbing Denver Center
05:13AM 40.8664 -102.5000 84° East 486 559 37,000  Level Denver Center
05:14AM 40.8814 -102.3008 84° East 486 559 37,000  Level Denver Center
05:15AM 40.8967 -102.1300 83° East 490 564 37,000 -60 Level Denver Center
05:16AM 40.9094 -101.9589 84° East 488 562 36,900  Descending Denver Center
05:17AM 40.9208 -101.7853 85° East 494 568 37,000  Climbing Denver Center
05:18AM 40.9361 -101.5817 84° East 498 573 37,000  Level Denver Center
05:19AM 40.9483 -101.4061 85° East 501 577 37,000  Level Denver Center
05:20AM 40.9614 -101.2311 84° East 499 574 37,000  Level Denver Center
05:21AM 40.9731 -101.0539 85° East 502 578 37,000  Level Denver Center
05:22AM 40.9878 -100.8453 85° East 504 580 37,000  Level Denver Center
05:23AM 40.9997 -100.6647 85° East 503 579 37,000  Level Denver Center
05:24AM 41.0108 -100.4889 85° East 497 572 37,000  Level Denver Center
05:25AM 41.0203 -100.3147 86° East 494 568 37,000  Level Denver Center
05:26AM 41.0328 -100.1114 85° East 495 570 37,000  Level Denver Center
05:27AM 41.0431 -99.9375 85° East 495 570 37,000  Level Denver Center
05:28AM 41.0528 -99.7664 86° East 493 567 37,000  Level Denver Center
05:29AM 41.0631 -99.5867 86° East 490 564 37,000  Level Denver Center
05:30AM 41.0722 -99.4083 86° East 487 560 37,000  Level Denver Center
05:31AM 41.0817 -99.2300 86° East 486 559 37,000  Level Denver Center
05:32AM 41.0903 -99.0503 86° East 488 562 37,000  Level Denver Center
05:33AM 41.0983 -98.8772 86° East 491 565 37,000  Level Denver Center
05:34AM 41.1078 -98.6731 86° East 494 568 37,000  Level Denver Center
05:35AM 41.1164 -98.4867 86° East 492 566 37,000  Level Minneapolis Center
05:36AM 41.1253 -98.3036 86° East 494 568 37,000  Level Minneapolis Center
05:37AM 41.1322 -98.1236 87° East 493 567 37,000  Level Minneapolis Center
05:38AM 41.1403 -97.9436 87° East 491 565 37,000  Level Minneapolis Center
05:39AM 41.1472 -97.7628 87° East 491 565 37,000  Level Minneapolis Center
05:40AM 41.1533 -97.5825 87° East 490 564 37,000  Level Minneapolis Center
05:41AM 41.1600 -97.4003 87° East 492 566 37,000  Level Minneapolis Center
05:42AM 41.1664 -97.2222 87° East 491 565 37,000  Level Minneapolis Center
05:43AM 41.1722 -97.0394 88° East 494 568 37,000  Level Minneapolis Center
05:44AM 41.1783 -96.8567 87° East 496 571 37,000  Level Minneapolis Center
05:45AM 41.1836 -96.6744 88° East 496 571 37,000  Level Minneapolis Center
05:46AM 41.1897 -96.4594 88° East 490 564 37,000  Level Minneapolis Center
05:47AM 41.1936 -96.3094 88° East 494 568 37,000  Level Minneapolis Center
05:48AM 41.1986 -96.1272 88° East 494 568 37,000  Level Minneapolis Center
05:49AM 41.2019 -95.9450 89° East 494 568 37,000  Level Minneapolis Center
05:50AM 41.2064 -95.7644 88° East 491 565 37,000 -60 Level Minneapolis Center
05:52AM 41.2094 -95.5650 89° East 492 566 36,900  Descending Minneapolis Center
05:53AM 41.2133 -95.3836 88° East 494 568 37,000  Climbing Minneapolis Center
05:54AM 41.2161 -95.2019 89° East 495 570 37,000  Level Minneapolis Center
05:55AM 41.2197 -95.0206 88° East 493 567 37,000  Level Minneapolis Center
05:56AM 41.2211 -94.8408 89° East 491 565 37,000  Level Minneapolis Center
05:57AM 41.2236 -94.6603 89° East 490 564 37,000  Level Minneapolis Center
05:58AM 41.2253 -94.4803 89° East 489 563 37,000  Level Minneapolis Center
05:59AM 41.2261 -94.2994 90° East 489 563 37,000  Level Minneapolis Center
06:00AM 41.2281 -94.1292 89° East 491 565 37,000  Level Minneapolis Center
06:01AM 41.2292 -93.9500 89° East 490 564 37,000  Level Minneapolis Center
06:02AM 41.2297 -93.7697 90° East 490 564 37,000  Level Minneapolis Center
06:03AM 41.2311 -93.5900 89° East 489 563 37,000  Level Minneapolis Center
06:04AM 41.2322 -93.3711 90° East 494 568 37,000  Level Minneapolis Center
06:05AM 41.2325 -93.1906 90° East 493 567 37,000  Level Minneapolis Center
06:06AM 41.2319 -93.0092 90° East 493 567 37,000  Level Minneapolis Center
06:07AM 41.2317 -92.8256 90° East 497 572 37,000  Level Minneapolis Center
06:08AM 41.2311 -92.6422 90° East 497 572 37,000  Level Minneapolis Center
06:08AM 41.2297 -92.5303 91° East 499 574 37,000  Level Chicago Center
06:09AM 41.2286 -92.3483 90° East 498 573 37,000  Level Chicago Center
06:10AM 41.2267 -92.1664 91° East 495 570 37,000  Level Chicago Center
06:11AM 41.2250 -91.9858 91° East 492 566 37,000  Level Chicago Center
06:12AM 41.2231 -91.8056 91° East 492 566 37,000  Level Chicago Center
06:13AM 41.2194 -91.5933 91° East 494 568 37,000  Level Chicago Center
06:14AM 41.2169 -91.4106 91° East 494 568 37,000  Level Chicago Center
06:15AM 41.2131 -91.2275 92° East 496 571 37,000  Level Chicago Center
06:16AM 41.2108 -91.0433 91° East 498 573 37,000  Level Chicago Center
06:17AM 41.2067 -90.8597 92° East 498 573 37,000  Level Chicago Center
06:18AM 41.2033 -90.6764 91° East 496 571 37,000  Level Chicago Center
06:19AM 41.1989 -90.4908 92° East 499 574 37,000  Level Chicago Center
06:20AM 41.1933 -90.3092 92° East 494 568 37,000  Level Chicago Center
06:21AM 41.1889 -90.1272 92° East 493 567 37,000  Level Chicago Center
06:22AM 41.1833 -89.9411 92° East 499 574 37,000  Level Chicago Center
06:23AM 41.1781 -89.7567 92° East 498 573 37,000  Level Chicago Center
06:24AM 41.1725 -89.5706 92° East 496 571 37,000  Level Chicago Center
06:25AM 41.1675 -89.3897 92° East 497 572 37,000  Level Chicago Center
06:26AM 41.1608 -89.2089 93° East 491 565 37,000  Level Chicago Center
06:27AM 41.1533 -89.0319 93° East 489 563 37,000  Level Chicago Center
06:28AM 41.1453 -88.8525 93° East 492 566 37,000  Level Chicago Center
06:29AM 41.1386 -88.6733 93° East 491 565 37,000  Level Chicago Center
06:30AM 41.1314 -88.4947 93° East 491 565 37,000  Level Chicago Center
06:31AM 41.1244 -88.3175 93° East 487 560 37,000  Level Chicago Center
06:32AM 41.1164 -88.1425 93° East 486 559 37,000  Level Chicago Center
06:34AM 41.1092 -87.9681 93° East 483 556 37,000  Level Chicago Center
06:35AM 41.0992 -87.7589 94° East 483 556 37,000  Level Chicago Center
06:36AM 41.0911 -87.5842 93° East 483 556 37,000  Level Chicago Center
06:37AM 41.0814 -87.4094 94° East 482 555 37,000  Level Chicago Center
06:38AM 41.0728 -87.2350 94° East 480 552 37,000  Level Chicago Center
06:39AM 41.0633 -87.0603 94° East 480 552 37,000  Level Chicago Center
06:40AM 41.0536 -86.8842 94° East 483 556 37,000  Level Chicago Center
06:41AM 41.0447 -86.7136 94° East 479 551 37,000  Level Chicago Center
06:42AM 41.0331 -86.5406 95° East 476 548 37,000  Level Chicago Center
06:43AM 41.0225 -86.3692 95° East 473 544 37,000  Level Chicago Center
06:44AM 41.0128 -86.1967 94° East 472 543 37,000  Level Chicago Center
06:45AM 41.0014 -86.0261 95° East 470 541 37,000  Level Chicago Center
06:46AM 40.9903 -85.8556 95° East 470 541 37,000  Level Chicago Center
06:47AM 40.9792 -85.6850 95° East 470 541 37,000  Level Chicago Center
06:48AM 40.9686 -85.5169 95° East 466 536 37,000  Level Chicago Center
06:49AM 40.9542 -85.3108 95° East 474 545 37,000  Level Chicago Center
06:50AM 40.9417 -85.1367 95° East 480 552 37,000  Level Chicago Center
06:51AM 40.9294 -84.9656 95° East 473 544 37,000  Level Chicago Center
06:52AM 40.9172 -84.7933 95° East 474 545 37,000  Level Chicago Center
06:53AM 40.9039 -84.6244 96° East 468 539 37,000  Level Chicago Center
06:53AM 40.8956 -84.5197 96° East 463 533 37,000  Level Cleveland Center
06:54AM 40.8825 -84.3514 96° East 463 533 37,000  Level Cleveland Center
06:55AM 40.8783 -84.2925 95° East 457 526 37,000  Level Chicago Center
06:56AM 40.8658 -84.1258 96° East 457 526 37,000  Level Chicago Center
06:57AM 40.8525 -83.9594 96° East 459 528 37,000 -120 Level Chicago Center
06:57AM 40.8436 -83.8494 96° East 463 533 36,900  Descending Cleveland Center
06:58AM 40.8297 -83.6842 96° East 463 533 37,000  Climbing Cleveland Center
06:59AM 40.8153 -83.5189 97° East 458 527 37,000  Level Cleveland Center
07:00AM 40.8006 -83.3536 97° East 458 527 37,000 -60 Level Cleveland Center
07:01AM 40.7878 -83.1883 96° East 453 521 36,900 -60 Descending Cleveland Center
07:02AM 40.7728 -83.0233 97° East 453 521 36,900  Level Cleveland Center
07:03AM 40.7553 -82.8556 98° East 453 521 37,000  Climbing Cleveland Center
07:04AM 40.7397 -82.6958 97° East 448 516 37,000  Level Cleveland Center
07:05AM 40.7258 -82.5283 96° East 448 516 37,000  Level Cleveland Center
07:06AM 40.7078 -82.3689 98° East 448 516 37,000  Level Cleveland Center
07:07AM 40.6914 -82.2042 97° East 448 516 37,000  Level Cleveland Center
07:08AM 40.6769 -82.0397 97° East 448 516 37,000  Level Cleveland Center
07:09AM 40.6603 -81.8722 97° East 453 521 37,000  Level Cleveland Center
07:10AM 40.6433 -81.7050 98° East 458 527 37,000  Level Cleveland Center
07:11AM 40.6281 -81.5378 97° East 463 533 37,000  Level Cleveland Center
07:12AM 40.6086 -81.3653 98° East 463 533 37,000  Level Cleveland Center
07:13AM 40.5931 -81.1928 97° East 468 539 37,000  Level Cleveland Center
07:14AM 40.5769 -81.0422 98° East 468 539 37,000  Level Cleveland Center
07:15AM 40.5589 -80.8700 98° East 468 539 37,000  Level Cleveland Center
07:16AM 40.5403 -80.7006 98° East 468 539 37,000  Level Cleveland Center
07:17AM 40.5217 -80.5286 98° East 468 539 37,000  Level Cleveland Center
07:18AM 40.4983 -80.3456 99° East 459 528 37,000  Level Cleveland Center
07:19AM 40.4792 -80.1792 99° East 459 528 37,000  Level Cleveland Center
07:20AM 40.4575 -80.0047 99° East 464 534 37,000  Level Cleveland Center
07:21AM 40.4464 -79.8439 95° East 483 556 37,000  Level Cleveland Center
07:22AM 40.4344 -79.6639 95° East 483 556 37,000  Level Cleveland Center
07:23AM 40.4225 -79.4867 95° East 483 556 37,000  Level Cleveland Center
07:24AM 40.4081 -79.2906 95° East 483 556 37,000  Level Cleveland Center
07:25AM 40.3933 -79.1139 96° East 483 556 37,000  Level Cleveland Center
07:26AM 40.3847 -78.9342 94° East 483 556 37,000 -180 Level Cleveland Center
07:27AM 40.3694 -78.7572 96° East 483 556 36,700 -1,140 Descending Cleveland Center
07:28AM 40.3561 -78.5806 96° East 483 556 34,800 -2,520 Descending Cleveland Center
07:29AM 40.3447 -78.4147 95° East 488 562 31,700 -2,940 Descending Cleveland Center
07:31AM 40.3167 -78.0125 95° East 510 587 25,700 -2,160 Descending New York Center
07:32AM 40.3122 -77.8433 92° East 491 565 25,000 -720 Descending New York Center
07:33AM 40.3111 -77.6878 90° East 454 522 24,300 -900 Descending New York Center
07:34AM 40.3094 -77.5353 91° East 432 497 23,300 -960 Descending New York Center
07:35AM 40.3033 -77.3875 93° East 416 479 22,400 -900 Descending New York Center
07:36AM 40.2808 -77.2631 103° East 405 466 21,500 -960 Descending New York Center
07:37AM 40.2575 -77.1194 102° East 400 460 20,500 -1,080 Descending New York Center
07:38AM 40.2358 -76.9786 101° East 400 460 19,400 -1,560 Descending New York Center
07:39AM 40.2125 -76.8242 101° East 395 455 17,400 -1,800 Descending New York Center
07:40AM 40.1878 -76.6944 104° East 382 440 15,800 -1,740 Descending New York Center
07:41AM 40.1706 -76.5789 101° East 370 426 14,000 -1,380 Descending New York Center
07:42AM 40.1494 -76.4575 103° East 354 407 13,100 -1,200 Descending New York Center
07:43AM 40.1303 -76.3364 102° East 331 381 11,700 -1,200 Descending New York Center
07:44AM 40.1167 -76.2267 99° East 308 354 10,800 -900 Descending New York Center
07:45AM 40.1089 -76.1203 95° East 298 343 9,900 -720 Descending New York Center
07:46AM 40.1008 -76.0219 96° East 298 343 9,400 -600 Descending New York Center
07:47AM 40.0936 -75.9019 94° East 298 343 8,800 -540 Descending New York Center
07:48AM 40.0836 -75.7956 97° East 292 336 8,400 -420 Descending New York Center
07:49AM 40.0772 -75.7000 95° East 292 336 8,000 -240 Descending New York Center
07:50AM 40.1003 -75.5931 74° East 271 312 8,000 -180 Level New York Center
07:51AM 40.1467 -75.5311 46° Northeast 259 298 7,700 -540 Descending New York Center
07:52AM 40.1956 -75.4531 51° Northeast 259 298 7,000 -360 Descending New York Center
07:53AM 40.1625 -75.3992 129° Southeast 170 196 7,000 -480 Level New York Center
07:54AM 40.0972 -75.4139 190° South 199 229 6,100 -540 Descending New York Center
07:55AM 40.0428 -75.4156 181° South 211 243 6,000 -60 Descending New York Center
07:56AM 39.9872 -75.3983 167° South 206 237 6,000  Level New York Center
07:57AM 39.9397 -75.3925 175° South 195 224 6,000 -480 Level New York Center
08:00AM 39.9000 -75.5333 250° West 173 199 4,500 -600 Descending Philadelphia TRACON
08:01AM 39.8833 -75.5833 247° West 172 198 4,100 -540 Descending Philadelphia TRACON
08:02AM 39.8500 -75.6000 201° Southwest 153 176 3,500 -540 Descending Philadelphia TRACON
08:03AM 39.8167 -75.6000 180° South 157 181 3,100 -240 Descending Philadelphia TRACON
08:04AM 39.8167 -75.5333 90° East 177 204 3,100  Level Philadelphia TRACON
08:05AM 39.8167 -75.4667 90° East 173 199 3,100 -480 Level Philadelphia TRACON
08:06AM 39.8333 -75.4167 67° East 177 204 2,200 -900 Descending Philadelphia TRACON